Milwaukee, WI

12:13 AM CST on December 06, 2016 (GMT -0600)
Near the airport | | Change Station

Elev 687 ft 42.93 °N, 87.87 °W | Updated 10 seconds ago

Rain
Rain
36.5 °F
Feels Like 33 °F
N
4.0
Wind Variable Wind from SSE

Today
High -- | Low -- °F
--% Chance of Precip.
Yesterday
High -- | Low -- °F
Precip. -- in
Pressure 29.92 in
Visibility 8.0 miles
Clouds Overcast 900 ft
Windchill 33 °F
Dew Point 35 °F
Humidity 96%
Rainfall 0.00 in
Snow Depth Not available.
7:08 AM 4:17 PM
Waxing Crescent, 38% visible
METAR KMKE 060552Z 16010KT 8SM OVC009 03/01 A2990 RMK AO2 SLP131 T00280006 10028 20011 400280006 58018
Pressure 29.92 in
Visibility 8.0 miles
Clouds Overcast 900 ft
Windchill 33 °F
Dew Point 35 °F
Humidity 96%
Rainfall 0.00 in
Snow Depth Not available.
7:08 AM 4:17 PM
Waxing Crescent, 38% visible
METAR KMKE 060552Z 16010KT 8SM OVC009 03/01 A2990 RMK AO2 SLP131 T00280006 10028 20011 400280006 58018

10-Day Weather Forecast

Almanac

Astronomy

Dec. 06, 2016 Rise Set
Actual Time
Civil Twilight
Nautical Twilight
Astronomical Twilight
Moon
Length of Visible Light
Length of Day
Tomorrow will be .
, % of the Moon is Illuminated

Today's Extremes

State Highs State Lows

Community

WunderPhotos

Upload Photos

1,955,932 photos uploaded!

WunderBlog® & News

Nearby

Air Quality

  Air Quality AQ Index Pollutant
Not available.

Snow Depth

Station Depth Elevation

Earthquake Activity

City Distance Mag. Time & Date
Minimum magnitude displayed is 2.5.

Coastal Water Temperatures

Place Temperature

Stations

Nearby Weather Stations

Station Location Temp. Windchill Dew Point Humidity Wind Precip. Elev Updated Type
                   

Watches & Warnings

There are currently no watches in effect.